Time;durP1;ratioP1;P1;durP2;ratioP2;P2;SDS_P1;SDS_P2;PMS_P1;PMS_P2;Temp;Humidity;BMP_temperature;BMP_pressure;BME280_temperature;BME280_humidity;BME280_pressure;Samples;Min_cycle;Max_cycle;Signal;HPM_P1;HPM_P2
2021/04/04 04:45:35;;;;;;;5.10;2.10;;;;;;;;;;6140050;22;3238899;-84
2021/04/04 04:48:01;;;;;;;6.35;2.90;;;;;;;;;;6291697;22;20020;-83
2021/04/04 04:50:27;;;;;;;4.70;2.05;;;;;;;;;;6291426;22;20026;-84
2021/04/04 04:52:55;;;;;;;5.70;2.55;;;;;;;;;;6291844;22;20004;-83
2021/04/04 04:55:21;;;;;;;6.15;2.58;;;;;;;;;;6291654;22;20000;-84
2021/04/04 04:57:48;;;;;;;4.30;2.17;;;;;;;;;;6292311;22;20418;-83
2021/04/04 05:00:14;;;;;;;4.72;2.33;;;;;;;;;;6292591;22;20433;-83
2021/04/04 05:02:41;;;;;;;5.70;2.35;;;;;;;;;;6292283;22;20003;-83
2021/04/04 05:05:07;;;;;;;6.22;2.40;;;;;;;;;;6284162;22;20035;-83
2021/04/04 05:07:33;;;;;;;5.47;2.30;;;;;;;;;;6287592;22;19999;-84
2021/04/04 05:10:00;;;;;;;4.18;2.00;;;;;;;;;;6283187;22;20007;-83
2021/04/04 05:12:26;;;;;;;5.05;2.38;;;;;;;;;;6280914;22;19999;-83
2021/04/04 05:14:53;;;;;;;5.05;2.42;;;;;;;;;;6277386;22;20006;-83
2021/04/04 05:17:19;;;;;;;8.10;2.63;;;;;;;;;;6282209;22;20023;-82
2021/04/04 05:19:44;;;;;;;8.20;2.40;;;;;;;;;;6283181;22;20003;-84
2021/04/04 05:22:10;;;;;;;7.30;2.72;;;;;;;;;;6280794;22;19985;-83
2021/04/04 05:26:55;;;;;;;8.70;2.85;;;;;;;;;;5119481;27;20397;-81
2021/04/04 05:29:21;;;;;;;7.60;2.53;;;;;;;;;;5111122;28;20028;-82
2021/04/04 05:31:47;;;;;;;7.70;3.03;;;;;;;;;;5107210;28;20036;-81
2021/04/04 05:34:14;;;;;;;9.57;3.72;;;;;;;;;;5112223;28;20030;-82
2021/04/04 05:37:01;;;;;;;5.78;2.60;;;;;;;;;;5106535;28;20052;-81
2021/04/04 05:39:28;;;;;;;6.50;2.72;;;;;;;;;;5090534;28;20050;-81
2021/04/04 05:41:54;;;;;;;5.32;2.45;;;;;;;;;;5106131;28;20024;-82
2021/04/04 05:44:31;;;;;;;5.15;2.70;;;;;;;;;;5107492;28;20022;-81
2021/04/04 05:47:01;;;;;;;7.10;2.65;;;;;;;;;;5110009;28;20034;-81
2021/04/04 05:49:59;;;;;;;4.30;2.55;;;;;;;;;;5096858;28;20063;-81
2021/04/04 05:52:39;;;;;;;7.95;2.92;;;;;;;;;;5078509;28;20054;-81
2021/04/04 05:55:18;;;;;;;6.20;3.08;;;;;;;;;;5106056;28;20031;-82
2021/04/04 05:57:47;;;;;;;7.00;3.35;;;;;;;;;;5095077;28;20024;-82
2021/04/04 06:00:15;;;;;;;5.57;2.78;;;;;;;;;;5101805;28;20095;-81
2021/04/04 06:02:56;;;;;;;7.38;2.17;;;;;;;;;;5104192;28;20089;-81
2021/04/04 06:05:40;;;;;;;4.82;2.83;;;;;;;;;;5102511;28;20042;-82
2021/04/04 06:08:24;;;;;;;9.98;4.07;;;;;;;;;;5104761;28;20051;-81
2021/04/04 06:10:56;;;;;;;6.93;2.65;;;;;;;;;;5102201;28;20020;-81
2021/04/04 06:13:21;;;;;;;;;;;;;;;;;;5100070;28;20022;-81
2021/04/04 06:15:53;;;;;;;5.53;2.60;;;;;;;;;;5106333;28;19908;-82
2021/04/04 06:18:38;;;;;;;6.18;2.53;;;;;;;;;;5107674;28;20383;-81
2021/04/04 06:21:11;;;;;;;7.07;2.90;;;;;;;;;;5104622;28;20020;-81
2021/04/04 06:23:44;;;;;;;6.30;2.42;;;;;;;;;;5103885;28;20027;-81
2021/04/04 06:26:25;;;;;;;5.15;2.80;;;;;;;;;;5102642;28;20032;-81
2021/04/04 06:29:03;;;;;;;8.70;3.00;;;;;;;;;;5100781;28;20529;-81
2021/04/04 06:31:39;;;;;;;6.63;2.70;;;;;;;;;;5094636;28;20251;-82
2021/04/04 06:34:14;;;;;;;7.03;2.45;;;;;;;;;;5099539;28;20522;-81
2021/04/04 06:36:54;;;;;;;10.00;3.05;;;;;;;;;;5098316;28;20080;-81
2021/04/04 06:39:25;;;;;;;7.65;2.90;;;;;;;;;;5086760;28;20436;-82
2021/04/04 06:41:51;;;;;;;9.30;3.47;;;;;;;;;;5089137;28;20447;-82
2021/04/04 06:44:23;;;;;;;6.50;3.08;;;;;;;;;;5087124;28;20016;-82
2021/04/04 06:46:55;;;;;;;6.25;2.50;;;;;;;;;;5093746;28;20020;-82
2021/04/04 06:49:40;;;;;;;6.97;3.20;;;;;;;;;;5087899;28;20020;-82
2021/04/04 06:52:17;;;;;;;6.03;3.08;;;;;;;;;;5087355;28;20068;-82
2021/04/04 06:54:51;;;;;;;13.98;2.90;;;;;;;;;;5087325;28;20045;-82
2021/04/04 06:57:37;;;;;;;7.93;3.03;;;;;;;;;;5083043;28;20052;-82
2021/04/04 07:00:07;;;;;;;9.50;3.47;;;;;;;;;;5082547;28;20020;-82
2021/04/04 07:02:34;;;;;;;6.47;2.85;;;;;;;;;;5090091;28;20057;-82
2021/04/04 07:05:03;;;;;;;6.78;2.95;;;;;;;;;;5084755;28;20020;-82
2021/04/04 07:07:47;;;;;;;6.45;2.75;;;;;;;;;;5091044;28;20028;-82
2021/04/04 07:10:13;;;;;;;8.77;3.33;;;;;;;;;;5090474;28;20055;-82
2021/04/04 07:12:45;;;;;;;7.07;3.00;;;;;;;;;;5089722;28;20016;-82
2021/04/04 07:15:24;;;;;;;8.65;3.40;;;;;;;;;;5073470;28;20024;-82
2021/04/04 07:17:53;;;;;;;6.60;3.17;;;;;;;;;;5093457;28;20060;-82
2021/04/04 07:20:19;;;;;;;6.90;2.97;;;;;;;;;;5083692;28;20051;-82
2021/04/04 07:23:03;;;;;;;7.10;3.70;;;;;;;;;;5092267;28;20502;-82
2021/04/04 07:25:41;;;;;;;7.05;3.53;;;;;;;;;;5078855;28;20027;-82
2021/04/04 07:28:12;;;;;;;7.78;4.03;;;;;;;;;;5084781;28;20024;-82
2021/04/04 07:30:40;;;;;;;8.55;3.10;;;;;;;;;;5086656;28;20039;-82
2021/04/04 07:33:24;;;;;;;9.35;3.58;;;;;;;;;;5094045;28;20012;-82
2021/04/04 07:35:59;;;;;;;11.38;3.35;;;;;;;;;;5083447;28;20036;-82
2021/04/04 07:38:43;;;;;;;6.85;3.28;;;;;;;;;;5075223;28;20020;-82
2021/04/04 07:41:10;;;;;;;10.75;3.80;;;;;;;;;;5091222;28;20137;-82
2021/04/04 07:43:43;;;;;;;8.73;3.72;;;;;;;;;;5084643;28;20016;-82
2021/04/04 07:46:12;;;;;;;11.93;4.32;;;;;;;;;;5091366;28;20020;-83
2021/04/04 07:48:40;;;;;;;4.88;3.13;;;;;;;;;;5082132;28;20028;-82
2021/04/04 07:51:09;;;;;;;7.20;3.45;;;;;;;;;;5090439;28;20055;-82
2021/04/04 07:54:00;;;;;;;9.93;3.90;;;;;;;;;;5087795;28;20055;-82
2021/04/04 07:56:33;;;;;;;9.52;3.72;;;;;;;;;;5072507;28;20082;-82
2021/04/04 07:59:09;;;;;;;7.95;2.97;;;;;;;;;;5085121;28;20028;-83
2021/04/04 08:01:40;;;;;;;7.63;3.53;;;;;;;;;;5065583;28;20023;-82
2021/04/04 08:04:11;;;;;;;8.17;3.17;;;;;;;;;;5088328;28;20024;-83
2021/04/04 08:09:01;;;;;;;8.95;3.63;;;;;;;;;;5124774;27;20346;-83
2021/04/04 08:11:39;;;;;;;8.70;3.92;;;;;;;;;;5112820;28;20320;-82
2021/04/04 08:14:13;;;;;;;8.23;3.33;;;;;;;;;;5108255;28;20027;-83
2021/04/04 08:16:43;;;;;;;8.57;3.70;;;;;;;;;;5118396;28;20032;-83
2021/04/04 08:19:13;;;;;;;11.77;3.65;;;;;;;;;;5125245;28;20035;-83
2021/04/04 08:21:47;;;;;;;11.35;4.28;;;;;;;;;;5115768;28;20063;-83
2021/04/04 08:24:17;;;;;;;12.45;3.97;;;;;;;;;;5125410;28;20021;-83
2021/04/04 08:27:02;;;;;;;8.95;4.03;;;;;;;;;;5114405;28;20422;-83
2021/04/04 08:29:40;;;;;;;11.13;4.38;;;;;;;;;;5100116;28;20024;-83
2021/04/04 08:32:09;;;;;;;12.20;4.93;;;;;;;;;;5114386;27;20443;-83
2021/04/04 08:34:38;;;;;;;11.35;4.60;;;;;;;;;;5121826;27;20043;-83
2021/04/04 08:37:24;;;;;;;11.18;4.57;;;;;;;;;;5116150;28;20058;-83
2021/04/04 08:39:53;;;;;;;12.38;4.45;;;;;;;;;;5121968;27;20022;-83
2021/04/04 08:42:19;;;;;;;13.90;5.53;;;;;;;;;;5121342;27;20020;-83
2021/04/04 08:44:50;;;;;;;14.10;5.05;;;;;;;;;;5102405;27;20024;-83
2021/04/04 08:47:16;;;;;;;;;;;;;;;;;;5116542;28;20052;-83
2021/04/04 08:49:42;;;;;;;14.57;5.00;;;;;;;;;;5115691;28;20283;-83
2021/04/04 08:52:28;;;;;;;12.02;3.70;;;;;;;;;;5119213;27;20062;-83
2021/04/04 08:54:54;;;;;;;11.70;4.05;;;;;;;;;;5115117;28;20047;-83
2021/04/04 08:57:26;;;;;;;18.98;5.18;;;;;;;;;;5116370;28;20364;-82
2021/04/04 08:59:54;;;;;;;15.98;5.68;;;;;;;;;;5118293;28;20107;-83
2021/04/04 09:02:19;;;;;;;11.05;4.68;;;;;;;;;;5122383;28;20494;-83
2021/04/04 09:04:45;;;;;;;9.80;4.25;;;;;;;;;;5116928;28;20027;-83
2021/04/04 09:07:11;;;;;;;16.15;4.82;;;;;;;;;;5109440;28;20111;-83
2021/04/04 09:09:39;;;;;;;11.35;4.28;;;;;;;;;;5121269;27;20019;-83
2021/04/04 09:12:05;;;;;;;11.63;4.20;;;;;;;;;;5108697;28;20024;-83
2021/04/04 09:14:35;;;;;;;11.75;5.38;;;;;;;;;;5118835;28;20031;-83
2021/04/04 09:17:06;;;;;;;11.83;4.70;;;;;;;;;;5114224;28;20045;-83
2021/04/04 09:19:33;;;;;;;12.65;4.55;;;;;;;;;;5114110;27;20020;-83
2021/04/04 09:22:11;;;;;;;15.65;5.80;;;;;;;;;;5094181;28;20035;-83
2021/04/04 09:24:45;;;;;;;17.83;5.53;;;;;;;;;;5109861;28;20384;-83
2021/04/04 09:27:16;;;;;;;12.07;4.35;;;;;;;;;;5102855;28;20055;-83
2021/04/04 09:29:42;;;;;;;;;;;;;;;;;;5105950;28;20399;-83
2021/04/04 09:32:12;;;;;;;11.20;4.47;;;;;;;;;;5084567;28;19908;-83
2021/04/04 09:34:39;;;;;;;16.05;4.82;;;;;;;;;;5106681;28;20026;-83
2021/04/04 09:37:05;;;;;;;11.07;5.00;;;;;;;;;;5103649;28;20028;-83
2021/04/04 09:39:32;;;;;;;10.80;3.97;;;;;;;;;;5107788;28;20031;-84
2021/04/04 09:41:58;;;;;;;11.85;4.38;;;;;;;;;;5104609;28;20028;-83
2021/04/04 09:44:31;;;;;;;12.07;4.45;;;;;;;;;;5088000;28;20072;-83
2021/04/04 09:47:01;;;;;;;10.65;4.05;;;;;;;;;;5106331;28;20027;-83
2021/04/04 09:49:32;;;;;;;8.98;4.07;;;;;;;;;;5106513;28;20466;-84
2021/04/04 09:51:58;;;;;;;14.02;5.18;;;;;;;;;;5097985;28;20016;-83
2021/04/04 09:54:24;;;;;;;13.73;4.43;;;;;;;;;;5102989;28;20042;-83
2021/04/04 09:56:56;;;;;;;12.10;4.88;;;;;;;;;;5099063;28;20107;-83
2021/04/04 09:59:27;;;;;;;11.25;4.50;;;;;;;;;;5103661;28;20037;-83
2021/04/04 10:01:53;;;;;;;9.88;4.57;;;;;;;;;;5109505;28;20069;-83
2021/04/04 10:04:18;;;;;;;13.25;5.85;;;;;;;;;;5101509;28;20028;-83
2021/04/04 10:06:57;;;;;;;11.43;4.25;;;;;;;;;;5103355;28;20489;-83
2021/04/04 10:09:22;;;;;;;9.52;4.30;;;;;;;;;;5103398;28;20028;-83
2021/04/04 10:11:59;;;;;;;11.82;6.18;;;;;;;;;;5097245;28;20071;-83
2021/04/04 10:14:24;;;;;;;11.65;4.43;;;;;;;;;;5095670;28;20069;-83
2021/04/04 10:17:07;;;;;;;9.98;4.55;;;;;;;;;;5097032;28;20024;-83
2021/04/04 10:19:32;;;;;;;10.57;4.25;;;;;;;;;;5097033;28;20024;-83
2021/04/04 10:22:00;;;;;;;16.95;5.30;;;;;;;;;;5102887;28;20111;-83
2021/04/04 10:26:43;;;;;;;10.73;4.15;;;;;;;;;;5110932;27;20695;-89
2021/04/04 10:29:19;;;;;;;7.65;4.05;;;;;;;;;;5114551;28;20028;-90
2021/04/04 10:31:46;;;;;;;11.85;4.57;;;;;;;;;;5099528;28;20027;-90
2021/04/04 10:34:12;;;;;;;9.52;4.40;;;;;;;;;;5099061;28;20510;-89
2021/04/04 10:39:19;;;;;;;11.52;4.55;;;;;;;;;;5091447;28;20528;-83
2021/04/04 10:41:45;;;;;;;10.85;4.43;;;;;;;;;;5071307;28;20374;-82
2021/04/04 10:44:20;;;;;;;12.38;4.47;;;;;;;;;;5076418;28;20055;-82
2021/04/04 10:46:46;;;;;;;9.88;5.03;;;;;;;;;;5069539;28;20033;-82
2021/04/04 10:49:11;;;;;;;14.82;5.15;;;;;;;;;;5073226;28;20503;-82
2021/04/04 10:51:37;;;;;;;12.50;4.75;;;;;;;;;;5073036;28;20076;-82
2021/04/04 10:54:04;;;;;;;9.27;4.15;;;;;;;;;;5074803;28;19992;-83
2021/04/04 10:56:30;;;;;;;12.60;5.18;;;;;;;;;;5066247;28;20069;-83
2021/04/04 10:58:56;;;;;;;11.50;4.53;;;;;;;;;;5067392;28;20091;-83
2021/04/04 11:01:24;;;;;;;10.40;4.28;;;;;;;;;;5073841;28;20021;-82
2021/04/04 11:03:51;;;;;;;11.63;5.18;;;;;;;;;;5075893;28;20435;-82
2021/04/04 11:06:16;;;;;;;9.85;4.68;;;;;;;;;;5068237;28;20020;-82
2021/04/04 11:08:42;;;;;;;10.05;5.00;;;;;;;;;;5078765;28;20025;-81
2021/04/04 11:11:10;;;;;;;12.38;4.55;;;;;;;;;;5077565;28;20544;-82
2021/04/04 11:13:36;;;;;;;12.60;5.15;;;;;;;;;;5077429;28;20012;-82
2021/04/04 11:16:06;;;;;;;12.02;4.82;;;;;;;;;;5066774;28;20024;-82
2021/04/04 11:18:33;;;;;;;8.43;3.78;;;;;;;;;;5075101;28;20070;-82
2021/04/04 11:21:01;;;;;;;13.57;4.97;;;;;;;;;;5074636;28;20028;-81
2021/04/04 11:23:27;;;;;;;9.45;4.88;;;;;;;;;;5070594;28;20745;-82
2021/04/04 11:25:53;;;;;;;12.07;4.63;;;;;;;;;;5062388;28;20022;-82
2021/04/04 11:28:20;;;;;;;13.05;4.72;;;;;;;;;;5072814;28;20028;-82
2021/04/04 11:30:47;;;;;;;10.27;4.35;;;;;;;;;;5074553;28;20025;-82
2021/04/04 11:33:15;;;;;;;7.53;4.22;;;;;;;;;;5065698;28;20021;-82
2021/04/04 11:36:00;;;;;;;8.85;4.38;;;;;;;;;;5060840;28;20371;-82
2021/04/04 11:38:26;;;;;;;9.38;4.22;;;;;;;;;;5055533;28;20028;-82
2021/04/04 11:41:12;;;;;;;15.95;4.65;;;;;;;;;;5050867;28;20025;-82
2021/04/04 11:43:38;;;;;;;12.70;4.45;;;;;;;;;;5056639;28;20186;-82
2021/04/04 11:46:04;;;;;;;12.80;5.22;;;;;;;;;;5057980;28;20477;-82
2021/04/04 11:48:33;;;;;;;10.02;4.55;;;;;;;;;;5046164;28;20028;-81
2021/04/04 11:51:11;;;;;;;11.68;4.88;;;;;;;;;;5059846;28;20013;-81
2021/04/04 11:53:47;;;;;;;10.20;3.92;;;;;;;;;;5059154;28;20366;-82
2021/04/04 11:56:31;;;;;;;8.80;3.60;;;;;;;;;;5059320;28;20029;-82
2021/04/04 11:58:57;;;;;;;10.18;4.10;;;;;;;;;;5051429;28;20029;-81
2021/04/04 12:01:23;;;;;;;10.65;4.97;;;;;;;;;;5060332;28;20461;-82
2021/04/04 12:03:49;;;;;;;8.90;3.88;;;;;;;;;;5048452;28;20026;-82
2021/04/04 12:06:14;;;;;;;11.70;4.57;;;;;;;;;;5054839;28;20025;-81
2021/04/04 12:08:40;;;;;;;8.73;4.47;;;;;;;;;;5055258;28;20029;-82
2021/04/04 12:11:06;;;;;;;9.77;4.88;;;;;;;;;;5051413;28;20025;-82
2021/04/04 12:13:31;;;;;;;15.13;4.40;;;;;;;;;;5048326;28;20036;-82
2021/04/04 12:16:00;;;;;;;9.07;4.07;;;;;;;;;;5045442;28;20128;-81
2021/04/04 12:18:26;;;;;;;9.63;4.68;;;;;;;;;;5058177;28;20023;-82
2021/04/04 12:20:52;;;;;;;10.52;4.13;;;;;;;;;;5052031;28;20033;-82
2021/04/04 12:23:18;;;;;;;11.20;4.43;;;;;;;;;;5047169;28;20111;-82
2021/04/04 12:25:44;;;;;;;10.98;4.75;;;;;;;;;;5045480;28;20033;-82
2021/04/04 12:28:10;;;;;;;12.90;4.20;;;;;;;;;;5048475;28;20033;-82
2021/04/04 12:30:36;;;;;;;12.52;4.28;;;;;;;;;;5051556;28;20025;-82
2021/04/04 12:33:06;;;;;;;9.73;4.55;;;;;;;;;;5055221;28;20032;-82
2021/04/04 12:35:33;;;;;;;9.38;3.95;;;;;;;;;;5057641;28;20477;-82
2021/04/04 12:37:58;;;;;;;8.60;4.07;;;;;;;;;;5050570;28;20044;-82
2021/04/04 12:40:24;;;;;;;11.75;4.57;;;;;;;;;;5055378;28;20021;-82
2021/04/04 12:43:00;;;;;;;9.27;4.43;;;;;;;;;;5057366;28;20060;-82
2021/04/04 12:45:31;;;;;;;13.68;4.13;;;;;;;;;;5045126;28;20017;-82
2021/04/04 12:47:56;;;;;;;12.93;4.07;;;;;;;;;;5043454;28;20022;-82
2021/04/04 12:50:23;;;;;;;9.73;4.25;;;;;;;;;;5047500;28;20009;-82
2021/04/04 12:52:52;;;;;;;11.63;4.88;;;;;;;;;;5057653;28;20017;-82
2021/04/04 12:55:19;;;;;;;9.68;4.03;;;;;;;;;;5048266;28;20028;-82
2021/04/04 12:57:46;;;;;;;8.52;4.53;;;;;;;;;;5057579;28;20552;-82
2021/04/04 13:00:16;;;;;;;14.00;5.57;;;;;;;;;;5056825;28;20032;-82
2021/04/04 13:02:51;;;;;;;14.10;4.60;;;;;;;;;;5055532;28;20025;-81
2021/04/04 13:05:17;;;;;;;12.60;4.68;;;;;;;;;;5047716;28;20078;-81
2021/04/04 13:07:43;;;;;;;14.43;4.60;;;;;;;;;;5063349;28;20049;-82
2021/04/04 13:10:10;;;;;;;13.93;3.97;;;;;;;;;;5045595;28;20060;-81
2021/04/04 13:12:39;;;;;;;7.80;3.75;;;;;;;;;;5045284;28;20033;-82
2021/04/04 13:17:22;;;;;;;12.63;4.63;;;;;;;;;;5118385;27;20440;-82
2021/04/04 13:19:47;;;;;;;10.15;4.25;;;;;;;;;;5123874;27;20032;-81
2021/04/04 13:22:13;;;;;;;11.50;4.35;;;;;;;;;;5114526;28;20032;-82
2021/04/04 13:24:39;;;;;;;8.63;4.05;;;;;;;;;;5128173;27;20020;-81
2021/04/04 13:29:36;;;;;;;10.75;4.50;;;;;;;;;;5106009;27;20761;-81
2021/04/04 13:32:02;;;;;;;10.20;4.78;;;;;;;;;;5113333;28;20077;-82
2021/04/04 13:34:35;;;;;;;9.65;4.18;;;;;;;;;;5105849;28;20388;-81
2021/04/04 13:37:01;;;;;;;10.82;4.20;;;;;;;;;;5113219;28;20455;-82
2021/04/04 13:39:28;;;;;;;11.05;4.43;;;;;;;;;;5119577;28;20016;-82
2021/04/04 13:41:55;;;;;;;9.43;4.00;;;;;;;;;;5112733;28;20073;-81
2021/04/04 13:44:22;;;;;;;8.73;4.15;;;;;;;;;;5110946;28;20024;-81
2021/04/04 13:46:48;;;;;;;17.08;5.68;;;;;;;;;;5104735;28;20430;-81
2021/04/04 13:49:14;;;;;;;13.45;4.10;;;;;;;;;;5106897;28;20086;-82
2021/04/04 13:51:42;;;;;;;8.00;3.78;;;;;;;;;;5106449;28;20023;-81
2021/04/04 13:54:15;;;;;;;10.20;3.92;;;;;;;;;;5112351;28;20069;-82
2021/04/04 13:56:48;;;;;;;14.85;4.30;;;;;;;;;;5111137;28;20019;-81
2021/04/04 13:59:15;;;;;;;10.50;4.38;;;;;;;;;;5112412;28;20115;-82
2021/04/04 14:01:42;;;;;;;12.70;4.13;;;;;;;;;;5112372;28;20015;-81
2021/04/04 14:04:08;;;;;;;9.70;3.72;;;;;;;;;;5108303;28;20034;-81
2021/04/04 14:06:35;;;;;;;7.55;3.38;;;;;;;;;;5112343;28;20498;-82
2021/04/04 14:09:03;;;;;;;11.68;3.90;;;;;;;;;;5109570;28;20020;-82
2021/04/04 14:11:29;;;;;;;10.07;4.03;;;;;;;;;;5104473;28;20024;-83
2021/04/04 14:13:54;;;;;;;10.38;3.63;;;;;;;;;;5099418;28;20023;-82
2021/04/04 14:16:20;;;;;;;13.15;3.60;;;;;;;;;;5108397;28;20020;-83
2021/04/04 14:18:46;;;;;;;9.35;4.35;;;;;;;;;;5110489;28;20054;-83
2021/04/04 14:21:12;;;;;;;7.88;3.60;;;;;;;;;;5110475;28;20020;-83
2021/04/04 14:23:38;;;;;;;9.95;3.88;;;;;;;;;;5108177;28;20016;-83
2021/04/04 14:26:07;;;;;;;13.27;4.20;;;;;;;;;;5109744;28;20024;-82
2021/04/04 14:28:33;;;;;;;8.95;4.45;;;;;;;;;;5109071;28;20023;-82
2021/04/04 14:31:00;;;;;;;17.10;4.28;;;;;;;;;;5108563;28;20423;-83
2021/04/04 14:33:25;;;;;;;9.82;4.38;;;;;;;;;;5112825;28;20044;-83
2021/04/04 14:35:52;;;;;;;10.35;4.18;;;;;;;;;;5114224;27;20027;-82
2021/04/04 14:38:17;;;;;;;12.02;5.82;;;;;;;;;;5105672;28;20059;-83
2021/04/04 14:40:43;;;;;;;15.02;4.80;;;;;;;;;;5088589;28;20395;-82
2021/04/04 14:43:33;;;;;;;11.02;4.03;;;;;;;;;;5098738;28;20020;-82
2021/04/04 14:45:55;;;;;;;10.95;4.35;;;;;;;;;;5099752;28;20038;-83
2021/04/04 14:48:21;;;;;;;12.48;5.07;;;;;;;;;;5093960;28;20028;-83
2021/04/04 14:50:47;;;;;;;13.65;4.10;;;;;;;;;;5094996;28;20476;-82
2021/04/04 14:53:13;;;;;;;8.30;3.20;;;;;;;;;;5094810;28;20039;-83
2021/04/04 14:55:42;;;;;;;11.23;4.53;;;;;;;;;;5091456;28;20016;-82
2021/04/04 14:58:08;;;;;;;11.68;4.90;;;;;;;;;;5087999;28;20020;-82
2021/04/04 15:00:33;;;;;;;10.10;3.75;;;;;;;;;;5088328;28;20123;-82
2021/04/04 15:02:59;;;;;;;10.65;4.78;;;;;;;;;;5089841;28;20020;-83
2021/04/04 15:05:25;;;;;;;15.50;6.18;;;;;;;;;;5079260;28;20106;-83
2021/04/04 15:07:50;;;;;;;9.90;3.95;;;;;;;;;;5094780;28;20020;-83
2021/04/04 15:10:16;;;;;;;12.82;5.40;;;;;;;;;;5089806;28;20101;-83
2021/04/04 15:12:42;;;;;;;11.07;4.45;;;;;;;;;;5087437;28;20026;-84
2021/04/04 15:15:07;;;;;;;14.68;4.75;;;;;;;;;;5095082;28;20027;-83
2021/04/04 15:17:33;;;;;;;11.23;3.50;;;;;;;;;;5094901;28;20019;-82
2021/04/04 15:19:59;;;;;;;10.30;4.47;;;;;;;;;;5095620;28;20054;-83
2021/04/04 15:22:24;;;;;;;9.68;4.60;;;;;;;;;;5081302;28;20023;-83
2021/04/04 15:24:50;;;;;;;11.30;5.70;;;;;;;;;;5094856;28;20012;-83
2021/04/04 15:27:16;;;;;;;14.65;5.13;;;;;;;;;;5094567;28;20523;-83
2021/04/04 15:29:41;;;;;;;15.45;5.75;;;;;;;;;;5093672;28;20016;-83
2021/04/04 15:32:07;;;;;;;12.25;5.20;;;;;;;;;;5094993;28;20024;-82
2021/04/04 15:34:33;;;;;;;12.10;4.13;;;;;;;;;;5093115;28;20042;-83
2021/04/04 15:36:58;;;;;;;12.90;5.13;;;;;;;;;;5089961;28;20099;-83
2021/04/04 15:39:24;;;;;;;13.00;4.38;;;;;;;;;;5089330;28;20024;-83
2021/04/04 15:41:50;;;;;;;11.70;5.60;;;;;;;;;;5092987;28;20031;-83
2021/04/04 15:44:15;;;;;;;12.63;5.80;;;;;;;;;;5092767;28;20031;-84
2021/04/04 15:46:41;;;;;;;13.13;6.00;;;;;;;;;;5091339;22;20051;-84
2021/04/04 15:49:07;;;;;;;12.00;5.45;;;;;;;;;;5064566;28;20012;-83
2021/04/04 15:51:32;;;;;;;11.57;4.97;;;;;;;;;;5066189;28;20016;-83
2021/04/04 15:53:58;;;;;;;6.75;3.47;;;;;;;;;;5066368;28;20096;-83
2021/04/04 15:56:24;;;;;;;9.90;4.20;;;;;;;;;;5056409;28;20017;-82
2021/04/04 16:01:08;;;;;;;8.35;4.05;;;;;;;;;;5092894;28;20461;-83
2021/04/04 16:03:34;;;;;;;12.35;4.53;;;;;;;;;;5083575;28;20519;-83
2021/04/04 16:06:00;;;;;;;10.18;4.32;;;;;;;;;;5083403;28;20154;-83
2021/04/04 16:08:25;;;;;;;10.27;4.68;;;;;;;;;;5081039;28;20023;-83
2021/04/04 16:10:53;;;;;;;14.10;5.30;;;;;;;;;;5082469;28;20045;-83
2021/04/04 16:13:19;;;;;;;15.63;6.53;;;;;;;;;;5096384;28;20060;-83
2021/04/04 16:15:45;;;;;;;10.20;5.00;;;;;;;;;;5079589;28;20657;-82
2021/04/04 16:18:10;;;;;;;11.73;4.30;;;;;;;;;;5102632;28;20102;-83
2021/04/04 16:20:36;;;;;;;8.65;3.88;;;;;;;;;;5102581;28;20020;-83
2021/04/04 16:23:03;;;;;;;7.85;3.75;;;;;;;;;;5095867;28;20036;-83
2021/04/04 16:25:29;;;;;;;12.85;4.68;;;;;;;;;;5102008;28;20011;-83
2021/04/04 16:27:58;;;;;;;13.73;4.97;;;;;;;;;;5102481;28;20018;-83
2021/04/04 16:30:25;;;;;;;11.60;5.28;;;;;;;;;;5091258;28;20023;-83
2021/04/04 16:32:51;;;;;;;13.68;4.82;;;;;;;;;;5097535;28;20050;-83
2021/04/04 16:35:17;;;;;;;14.77;4.88;;;;;;;;;;5095076;28;20062;-83
2021/04/04 16:37:43;;;;;;;13.27;5.15;;;;;;;;;;5091209;28;20048;-83
2021/04/04 16:40:09;;;;;;;15.73;6.28;;;;;;;;;;5099326;28;20116;-83
2021/04/04 16:42:35;;;;;;;11.45;4.57;;;;;;;;;;5089574;28;20392;-83
2021/04/04 16:45:00;;;;;;;12.25;4.50;;;;;;;;;;5098222;28;20021;-83
2021/04/04 16:47:26;;;;;;;11.95;4.57;;;;;;;;;;5067418;28;20074;-82
2021/04/04 16:49:52;;;;;;;10.07;4.05;;;;;;;;;;5073474;28;20101;-82
2021/04/04 16:52:17;;;;;;;10.63;3.72;;;;;;;;;;5087803;28;20351;-82
2021/04/04 16:54:43;;;;;;;10.43;3.90;;;;;;;;;;5102236;28;20034;-84
2021/04/04 16:57:09;;;;;;;10.65;3.95;;;;;;;;;;5122800;28;20047;-82
2021/04/04 16:59:34;;;;;;;10.27;4.18;;;;;;;;;;5115748;28;20072;-83
2021/04/04 17:02:00;;;;;;;11.27;4.80;;;;;;;;;;5058155;23;20041;-78
2021/04/04 17:04:26;;;;;;;13.68;5.50;;;;;;;;;;5042504;28;20031;-77
2021/04/04 17:06:51;;;;;;;8.55;4.07;;;;;;;;;;5044439;28;20097;-78
2021/04/04 17:09:17;;;;;;;11.18;3.95;;;;;;;;;;5042450;28;20112;-78
2021/04/04 17:11:42;;;;;;;9.98;4.47;;;;;;;;;;5046217;28;20433;-78
2021/04/04 17:14:08;;;;;;;9.70;4.25;;;;;;;;;;5043368;28;20424;-78
2021/04/04 17:16:34;;;;;;;8.35;3.75;;;;;;;;;;5032231;28;20025;-78
2021/04/04 17:18:59;;;;;;;7.75;2.97;;;;;;;;;;5042865;28;20017;-78
2021/04/04 17:21:25;;;;;;;9.05;4.13;;;;;;;;;;5044489;28;20013;-78
2021/04/04 17:23:51;;;;;;;5.53;2.58;;;;;;;;;;5042454;28;20040;-78
2021/04/04 17:26:16;;;;;;;8.07;2.70;;;;;;;;;;5048772;28;20096;-78
2021/04/04 17:28:42;;;;;;;9.05;2.95;;;;;;;;;;5049718;28;20096;-78
2021/04/04 17:31:08;;;;;;;11.95;3.45;;;;;;;;;;5043292;28;20033;-78
2021/04/04 17:33:33;;;;;;;10.10;4.13;;;;;;;;;;5049015;28;20403;-78
2021/04/04 17:35:59;;;;;;;9.73;5.00;;;;;;;;;;5023967;28;20440;-77
2021/04/04 17:38:25;;;;;;;10.10;3.90;;;;;;;;;;5044361;28;20031;-77
2021/04/04 17:40:50;;;;;;;10.50;2.53;;;;;;;;;;5041975;28;20032;-78
2021/04/04 17:43:16;;;;;;;9.43;5.32;;;;;;;;;;5048109;28;20445;-78
2021/04/04 17:45:42;;;;;;;9.52;4.65;;;;;;;;;;5049051;28;20027;-78
2021/04/04 17:48:08;;;;;;;8.88;4.45;;;;;;;;;;5043229;28;20029;-78
2021/04/04 17:50:33;;;;;;;14.63;4.72;;;;;;;;;;5030305;28;20017;-78
2021/04/04 17:52:59;;;;;;;14.05;5.22;;;;;;;;;;5023537;28;20418;-78
2021/04/04 17:55:25;;;;;;;10.88;3.95;;;;;;;;;;5044019;28;19915;-78
2021/04/04 17:57:53;;;;;;;9.82;4.20;;;;;;;;;;5055589;28;20020;-78
2021/04/04 18:00:19;;;;;;;6.63;2.88;;;;;;;;;;5046021;28;20060;-78
2021/04/04 18:02:51;;;;;;;6.90;2.25;;;;;;;;;;5044344;28;20029;-78
2021/04/04 18:05:21;;;;;;;8.98;2.80;;;;;;;;;;5046111;28;20020;-77
2021/04/04 18:15:22;;;;;;;7.15;3.03;;;;;;;;;;5119546;27;20390;-78
2021/04/04 18:17:47;;;;;;;9.20;2.97;;;;;;;;;;5118058;28;20031;-78
2021/04/04 18:20:14;;;;;;;8.65;2.65;;;;;;;;;;5119241;28;20073;-77
2021/04/04 18:22:40;;;;;;;19.23;8.60;;;;;;;;;;5124905;28;20022;-78
2021/04/04 18:27:25;;;;;;;7.25;3.15;;;;;;;;;;5078971;28;20847;-78
2021/04/04 18:29:50;;;;;;;10.35;3.45;;;;;;;;;;5075856;28;20524;-78
2021/04/04 18:32:18;;;;;;;7.05;3.42;;;;;;;;;;5062886;28;20092;-77
2021/04/04 18:34:44;;;;;;;8.02;3.92;;;;;;;;;;5077007;28;20098;-77
2021/04/04 18:37:09;;;;;;;6.60;2.67;;;;;;;;;;5078925;28;20022;-78
2021/04/04 18:39:35;;;;;;;13.10;4.07;;;;;;;;;;5077794;28;20035;-78
2021/04/04 18:42:01;;;;;;;8.25;3.30;;;;;;;;;;5083160;28;20120;-78
2021/04/04 18:44:26;;;;;;;6.57;2.70;;;;;;;;;;5083836;28;20035;-78
2021/04/04 18:46:52;;;;;;;8.95;2.88;;;;;;;;;;5081728;28;20020;-78
2021/04/04 18:49:18;;;;;;;8.25;2.78;;;;;;;;;;5081483;28;20031;-77
2021/04/04 18:51:43;;;;;;;8.27;3.00;;;;;;;;;;5076145;28;20373;-78
2021/04/04 18:54:09;;;;;;;6.75;2.47;;;;;;;;;;5076854;28;20101;-78
2021/04/04 18:56:35;;;;;;;5.22;2.53;;;;;;;;;;5079076;28;20030;-77
2021/04/04 18:59:00;;;;;;;7.53;3.10;;;;;;;;;;5079390;28;20103;-77
2021/04/04 19:01:26;;;;;;;6.57;2.50;;;;;;;;;;5079505;28;20034;-77
2021/04/04 19:03:52;;;;;;;8.65;2.83;;;;;;;;;;5080013;28;20115;-78
2021/04/04 19:06:17;;;;;;;13.43;2.78;;;;;;;;;;5076550;28;20104;-78
2021/04/04 19:08:43;;;;;;;10.65;2.80;;;;;;;;;;5076820;28;20096;-77
2021/04/04 19:11:19;;;;;;;9.13;2.95;;;;;;;;;;5076885;28;20396;-77
2021/04/04 19:16:03;;;;;;;8.90;2.35;;;;;;;;;;5120692;27;20174;-77
2021/04/04 19:18:29;;;;;;;7.00;2.55;;;;;;;;;;5115785;28;20023;-77
2021/04/04 19:23:14;;;;;;;9.43;3.90;;;;;;;;;;5113533;27;20409;-77
2021/04/04 19:25:40;;;;;;;8.07;2.72;;;;;;;;;;5110775;28;20106;-78
2021/04/04 19:28:05;;;;;;;10.18;3.72;;;;;;;;;;5105666;28;20034;-78
2021/04/04 19:30:31;;;;;;;6.80;2.67;;;;;;;;;;5104189;28;20103;-78
2021/04/04 19:32:57;;;;;;;11.20;3.45;;;;;;;;;;5107171;28;20020;-78
2021/04/04 19:35:22;;;;;;;11.55;3.33;;;;;;;;;;5102949;28;20095;-78
2021/04/04 19:37:48;;;;;;;10.48;2.85;;;;;;;;;;5112156;28;20397;-77
2021/04/04 19:40:16;;;;;;;5.30;2.28;;;;;;;;;;5105485;28;20073;-77
2021/04/04 19:42:42;;;;;;;8.38;2.70;;;;;;;;;;5108673;28;20019;-77
2021/04/04 19:45:09;;;;;;;6.78;2.92;;;;;;;;;;5105870;28;20388;-76
2021/04/04 19:47:35;;;;;;;7.68;2.78;;;;;;;;;;5110361;28;20012;-78
2021/04/04 19:50:01;;;;;;;9.02;3.00;;;;;;;;;;5106937;28;20016;-78
2021/04/04 19:52:26;;;;;;;8.43;2.55;;;;;;;;;;5110043;28;20110;-78
2021/04/04 19:54:52;;;;;;;10.57;3.30;;;;;;;;;;5107829;28;20402;-77
2021/04/04 19:57:19;;;;;;;8.95;2.97;;;;;;;;;;5104660;28;20031;-77
2021/04/04 19:59:44;;;;;;;6.90;3.00;;;;;;;;;;5105204;28;20028;-77
2021/04/04 20:02:10;;;;;;;7.60;3.97;;;;;;;;;;5107092;28;20024;-77